createdAt,value
2023-09-08T00:00:56.139Z,16.26
2023-09-08T00:01:56.266Z,16.36
2023-09-08T00:02:56.152Z,16.36
2023-09-08T00:03:56.197Z,16.32
2023-09-08T00:04:56.190Z,16.29
2023-09-08T00:05:56.083Z,16.29
2023-09-08T00:06:56.106Z,16.29
2023-09-08T00:07:56.054Z,16.22
2023-09-08T00:08:56.045Z,16.10
2023-09-08T00:09:56.035Z,16.13
2023-09-08T00:10:56.030Z,16.07
2023-09-08T00:11:56.021Z,16.01
2023-09-08T00:12:56.005Z,16.07
2023-09-08T00:13:55.996Z,16.03
2023-09-08T00:14:55.979Z,16.06
2023-09-08T00:15:55.980Z,16.06
2023-09-08T00:16:56.122Z,16.16
2023-09-08T00:17:56.022Z,16.13
2023-09-08T00:18:55.956Z,16.08
2023-09-08T00:19:55.938Z,16.11
2023-09-08T00:20:55.922Z,16.06
2023-09-08T00:21:55.908Z,15.99
2023-09-08T00:22:56.044Z,15.95
2023-09-08T00:23:55.884Z,15.92
2023-09-08T00:24:55.875Z,15.96
2023-09-08T00:25:55.932Z,15.96
2023-09-08T00:26:55.866Z,16.01
2023-09-08T00:27:55.842Z,16.10
2023-09-08T00:28:55.867Z,16.18
2023-09-08T00:29:55.821Z,16.25
2023-09-08T00:30:55.812Z,16.24
2023-09-08T00:31:55.907Z,16.17
2023-09-08T00:32:55.939Z,16.16
2023-09-08T00:33:55.960Z,16.18
2023-09-08T00:34:55.795Z,16.17
2023-09-08T00:35:55.759Z,16.17
2023-09-08T00:36:55.747Z,16.13
2023-09-08T00:37:55.768Z,16.17
2023-09-08T00:38:55.759Z,16.08
2023-09-08T00:39:55.715Z,16.11
2023-09-08T00:40:55.729Z,16.07
2023-09-08T00:41:55.693Z,15.96
2023-09-08T00:42:55.689Z,15.91
2023-09-08T00:43:55.690Z,15.85
2023-09-08T00:44:55.663Z,15.80
2023-09-08T00:45:55.724Z,15.74
2023-09-08T00:46:55.639Z,15.74
2023-09-08T00:47:55.778Z,15.73
2023-09-08T00:48:55.618Z,15.64
2023-09-08T00:49:55.606Z,15.67
2023-09-08T00:50:55.599Z,15.68
2023-09-08T00:51:55.596Z,15.59
2023-09-08T00:52:55.578Z,15.55
2023-09-08T00:53:55.609Z,15.48
2023-09-08T00:54:55.580Z,15.49
2023-09-08T00:55:55.542Z,15.52
2023-09-08T00:56:55.538Z,15.49
2023-09-08T00:57:55.535Z,15.51
2023-09-08T00:58:55.520Z,15.51
2023-09-08T00:59:55.506Z,15.52
2023-09-08T01:00:55.523Z,15.56
2023-09-08T01:01:55.479Z,15.58
2023-09-08T01:02:55.554Z,15.64
2023-09-08T01:03:55.575Z,15.66
2023-09-08T01:04:55.476Z,15.68
2023-09-08T01:05:55.480Z,15.70
2023-09-08T01:06:55.429Z,15.67
2023-09-08T01:07:55.423Z,15.62
2023-09-08T01:08:55.465Z,15.59
2023-09-08T01:09:55.474Z,15.67
2023-09-08T01:10:55.410Z,15.56
2023-09-08T01:11:55.394Z,15.53
2023-09-08T01:12:55.365Z,15.36
2023-09-08T01:13:55.354Z,15.45
2023-09-08T01:14:55.398Z,15.37
2023-09-08T01:15:55.355Z,15.39
2023-09-08T01:16:55.337Z,15.33
2023-09-08T01:17:55.388Z,15.37
2023-09-08T01:18:55.347Z,15.22
2023-09-08T01:19:55.291Z,15.36
2023-09-08T01:20:55.295Z,15.40
2023-09-08T01:21:55.268Z,15.51
2023-09-08T01:22:55.263Z,15.58
2023-09-08T01:23:55.247Z,15.53
2023-09-08T01:24:55.233Z,15.52
2023-09-08T01:25:55.230Z,15.53
2023-09-08T01:26:55.237Z,15.51
2023-09-08T01:27:55.206Z,15.51
2023-09-08T01:28:55.197Z,15.40
2023-09-08T01:29:55.182Z,15.40
2023-09-08T01:30:55.265Z,15.40
2023-09-08T01:31:55.318Z,15.39
2023-09-08T01:32:55.170Z,15.32
2023-09-08T01:33:55.161Z,15.29
2023-09-08T01:34:55.128Z,15.36
2023-09-08T01:35:55.112Z,15.37
2023-09-08T01:36:55.101Z,15.42
2023-09-08T01:37:55.092Z,15.34
2023-09-08T01:38:55.114Z,15.36
2023-09-08T01:39:55.069Z,15.33
2023-09-08T01:40:55.062Z,15.37
2023-09-08T01:41:55.048Z,15.34
2023-09-08T01:42:55.058Z,15.33
2023-09-08T01:43:55.025Z,15.29
2023-09-08T01:44:55.018Z,15.19
2023-09-08T01:45:55.040Z,15.15
2023-09-08T01:46:54.992Z,15.12
2023-09-08T01:47:55.054Z,15.11
2023-09-08T01:48:55.005Z,15.04
2023-09-08T01:49:54.974Z,15.00
2023-09-08T01:50:54.949Z,14.92
2023-09-08T01:51:54.971Z,14.92
2023-09-08T01:52:54.931Z,14.89
2023-09-08T01:53:54.918Z,14.90
2023-09-08T01:54:54.925Z,14.81
2023-09-08T01:55:54.894Z,14.78
2023-09-08T01:56:54.886Z,14.84
2023-09-08T01:57:54.914Z,14.99
2023-09-08T01:58:54.880Z,15.08
2023-09-08T01:59:54.851Z,15.15
2023-09-08T02:00:54.889Z,15.24
2023-09-08T02:01:54.894Z,15.29
2023-09-08T02:02:55.024Z,15.30
2023-09-08T02:03:54.807Z,15.21
2023-09-08T02:04:54.837Z,15.19
2023-09-08T02:05:54.784Z,15.17
2023-09-08T02:06:54.770Z,15.11
2023-09-08T02:07:54.812Z,15.10
2023-09-08T02:08:54.750Z,14.97
2023-09-08T02:09:54.743Z,15.03
2023-09-08T02:10:54.724Z,15.00
2023-09-08T02:11:54.714Z,15.00
2023-09-08T02:12:54.704Z,15.02
2023-09-08T02:13:57.275Z,-40.00
2023-09-08T02:14:54.766Z,14.94
2023-09-08T02:15:54.757Z,14.85
2023-09-08T02:16:54.691Z,14.81
2023-09-08T02:17:54.692Z,14.78
2023-09-08T02:18:54.665Z,14.72
2023-09-08T02:19:54.635Z,14.71
2023-09-08T02:20:54.680Z,14.72
2023-09-08T02:21:54.605Z,14.66
2023-09-08T02:22:54.620Z,14.66
2023-09-08T02:23:54.599Z,14.69
2023-09-08T02:24:54.571Z,14.69
2023-09-08T02:25:54.566Z,14.64
2023-09-08T02:26:54.553Z,14.66
2023-09-08T02:27:54.566Z,14.60
2023-09-08T02:28:54.526Z,14.59
2023-09-08T02:29:54.534Z,14.57
2023-09-08T02:33:12.997Z,14.38
2023-09-08T02:35:12.998Z,-40.00
2023-09-08T02:36:12.896Z,-40.00
2023-09-08T02:37:12.866Z,-40.00
2023-09-08T02:38:12.854Z,-40.00
2023-09-08T02:39:12.865Z,-40.00
2023-09-08T02:40:12.839Z,14.90
2023-09-08T02:41:12.821Z,14.90
2023-09-08T02:42:12.857Z,14.82
2023-09-08T02:43:12.800Z,14.77
2023-09-08T02:44:12.801Z,14.85
2023-09-08T02:45:12.827Z,14.90
2023-09-08T02:46:12.846Z,14.85
2023-09-08T02:47:12.784Z,14.93
2023-09-08T02:48:12.811Z,14.92
2023-09-08T02:49:12.826Z,14.94
2023-09-08T02:50:12.784Z,14.96
2023-09-08T02:51:12.757Z,14.82
2023-09-08T02:52:12.742Z,14.78
2023-09-08T02:53:12.688Z,14.81
2023-09-08T02:54:12.684Z,14.84
2023-09-08T02:55:12.677Z,14.78
2023-09-08T02:56:12.659Z,14.79
2023-09-08T02:57:12.655Z,14.81
2023-09-08T02:58:12.708Z,14.81
2023-09-08T03:00:12.631Z,14.82
2023-09-08T03:01:12.670Z,14.96
2023-09-08T03:02:12.637Z,14.97
2023-09-08T03:03:12.643Z,15.11
2023-09-08T03:04:12.570Z,15.14
2023-09-08T03:05:12.678Z,15.19
2023-09-08T03:06:12.566Z,-40.00
2023-09-08T03:07:12.535Z,14.99
2023-09-08T03:08:12.536Z,15.02
2023-09-08T03:09:12.515Z,15.12
2023-09-08T03:10:12.509Z,15.03
2023-09-08T03:11:12.490Z,-40.00
2023-09-08T03:12:12.521Z,15.06
2023-09-08T03:13:12.465Z,15.14
2023-09-08T03:14:12.458Z,-40.00
2023-09-08T03:15:12.452Z,15.03
2023-09-08T03:16:12.456Z,15.03
2023-09-08T03:17:12.468Z,15.00
2023-09-08T03:18:15.167Z,15.04
2023-09-08T03:19:12.402Z,15.06
2023-09-08T03:20:12.394Z,15.10
2023-09-08T03:21:12.412Z,15.12
2023-09-08T03:22:12.371Z,15.00
2023-09-08T03:23:12.401Z,15.06
2023-09-08T03:24:12.353Z,15.04
2023-09-08T03:25:12.336Z,-40.00
2023-09-08T03:26:12.329Z,15.04
2023-09-08T03:27:12.335Z,-40.00
2023-09-08T03:28:12.304Z,15.08
2023-09-08T03:29:12.292Z,15.04
2023-09-08T03:30:12.289Z,15.14
2023-09-08T03:31:12.390Z,15.10
2023-09-08T03:32:12.385Z,15.03
2023-09-08T03:33:12.447Z,15.03
2023-09-08T03:34:12.312Z,14.99
2023-09-08T03:35:12.227Z,15.11
2023-09-08T03:36:12.242Z,15.10
2023-09-08T03:37:12.232Z,15.10
2023-09-08T03:38:12.207Z,15.15
2023-09-08T03:39:12.181Z,15.15
2023-09-08T03:40:12.194Z,15.11
2023-09-08T03:41:12.177Z,15.14
2023-09-08T03:42:12.153Z,15.10
2023-09-08T03:43:12.151Z,15.04
2023-09-08T03:44:12.140Z,15.10
2023-09-08T03:45:12.133Z,15.08
2023-09-08T03:46:12.201Z,15.14
2023-09-08T03:47:12.098Z,14.97
2023-09-08T03:48:12.097Z,15.10
2023-09-08T03:49:12.071Z,15.34
2023-09-08T03:51:12.047Z,15.04
2023-09-08T03:52:12.038Z,15.08
2023-09-08T03:53:12.051Z,15.08
2023-09-08T03:54:12.016Z,15.08
2023-09-08T03:55:12.003Z,15.10
2023-09-08T03:56:12.032Z,15.04
2023-09-08T03:57:11.988Z,15.04
2023-09-08T03:58:11.972Z,15.08
2023-09-08T03:59:11.958Z,15.04
2023-09-08T04:00:11.952Z,15.11
2023-09-08T04:01:11.963Z,14.97
2023-09-08T04:02:11.962Z,15.00
2023-09-08T04:03:11.974Z,14.93
2023-09-08T04:04:11.922Z,14.96
2023-09-08T04:05:11.933Z,14.99
2023-09-08T04:06:11.885Z,15.00
2023-09-08T04:07:11.880Z,14.99
2023-09-08T04:08:11.859Z,15.18
2023-09-08T04:09:11.920Z,15.24
2023-09-08T04:10:11.833Z,-40.00
2023-09-08T04:11:11.823Z,15.02
2023-09-08T04:12:11.846Z,15.04
2023-09-08T04:13:11.811Z,15.03
2023-09-08T04:14:11.793Z,15.02
2023-09-08T04:16:11.857Z,15.43
2023-09-08T04:17:11.756Z,15.10
2023-09-08T04:18:11.847Z,15.11
2023-09-08T04:19:11.735Z,15.06
2023-09-08T04:20:11.726Z,15.15
2023-09-08T04:21:11.744Z,15.10
2023-09-08T04:22:11.704Z,15.24
2023-09-08T04:23:11.691Z,15.26
2023-09-08T04:24:11.758Z,15.04
2023-09-08T04:25:11.688Z,15.27
2023-09-08T04:26:11.663Z,15.15
2023-09-08T04:27:13.770Z,-40.00
2023-09-08T04:28:11.637Z,14.93
2023-09-08T04:29:11.625Z,15.02
2023-09-08T04:30:11.711Z,14.97
2023-09-08T04:31:11.659Z,15.18
2023-09-08T04:32:11.595Z,14.99
2023-09-08T04:33:11.705Z,15.00
2023-09-08T04:34:11.572Z,15.02
2023-09-08T04:35:11.565Z,15.00
2023-09-08T04:36:11.612Z,14.96
2023-09-08T04:37:11.592Z,15.00
2023-09-08T04:38:11.533Z,15.00
2023-09-08T04:39:11.552Z,15.06
2023-09-08T04:40:11.506Z,-40.00
2023-09-08T04:41:11.522Z,14.97
2023-09-08T04:42:11.503Z,-40.00
2023-09-08T04:43:11.483Z,14.92
2023-09-08T04:44:11.479Z,-40.00
2023-09-08T04:45:11.554Z,-40.00
2023-09-08T04:46:11.458Z,15.06
2023-09-08T04:47:11.439Z,15.08
2023-09-08T04:48:11.456Z,15.11
2023-09-08T04:49:11.418Z,15.02
2023-09-08T04:50:11.415Z,14.99
2023-09-08T04:51:11.399Z,14.96
2023-09-08T04:52:11.386Z,14.93
2023-09-08T04:53:11.378Z,14.82
2023-09-08T04:55:11.356Z,15.06
2023-09-08T04:56:11.344Z,15.14
2023-09-08T04:57:22.119Z,-40.00
2023-09-08T04:58:12.357Z,-40.00
2023-09-08T04:59:11.316Z,-40.00
2023-09-08T05:00:11.306Z,-40.00
2023-09-08T05:01:11.346Z,14.97
2023-09-08T05:02:11.289Z,14.97
2023-09-08T05:03:11.373Z,124.98
2023-09-08T05:04:11.321Z,15.00
2023-09-08T05:05:11.256Z,14.96
2023-09-08T05:06:11.242Z,14.96
2023-09-08T05:07:11.252Z,14.89
2023-09-08T05:08:11.220Z,14.94
2023-09-08T05:09:11.221Z,15.06
2023-09-08T05:10:11.233Z,14.93
2023-09-08T05:11:11.198Z,14.92
2023-09-08T05:12:11.180Z,14.97
2023-09-08T05:13:24.216Z,15.08
2023-09-08T05:14:12.190Z,15.02
2023-09-08T05:15:11.190Z,15.02
2023-09-08T05:16:11.156Z,15.10
2023-09-08T05:17:11.131Z,15.00
2023-09-08T05:18:11.240Z,15.15
2023-09-08T05:19:11.108Z,15.06
2023-09-08T05:20:11.104Z,15.18
2023-09-08T05:21:11.174Z,15.19
2023-09-08T05:22:11.075Z,15.21
2023-09-08T05:23:11.070Z,15.18
2023-09-08T05:24:11.086Z,15.36
2023-09-08T05:25:11.093Z,15.15
2023-09-08T05:26:11.035Z,15.26
2023-09-08T05:27:11.059Z,15.24
2023-09-08T05:28:11.006Z,15.32
2023-09-08T05:29:11.041Z,15.26
2023-09-08T05:31:11.026Z,15.30
2023-09-08T05:33:11.087Z,-40.00
2023-09-08T05:34:10.945Z,-40.00
2023-09-08T05:35:10.938Z,15.19
2023-09-08T05:36:12.361Z,15.14
2023-09-08T05:37:10.937Z,15.14
2023-09-08T05:38:10.896Z,15.19
2023-09-08T05:39:10.889Z,15.12
2023-09-08T05:40:10.977Z,15.19
2023-09-08T05:41:10.862Z,15.17
2023-09-08T05:42:10.854Z,15.19
2023-09-08T05:43:10.888Z,15.26
2023-09-08T05:44:10.828Z,15.22
2023-09-08T05:45:10.862Z,15.29
2023-09-08T05:46:10.949Z,15.34
2023-09-08T05:47:10.943Z,15.34
2023-09-08T05:48:10.926Z,15.30
2023-09-08T05:49:10.917Z,15.34
2023-09-08T05:50:10.762Z,15.34
2023-09-08T05:51:10.755Z,15.43
2023-09-08T05:52:10.775Z,15.36
2023-09-08T05:53:10.770Z,15.49
2023-09-08T05:54:10.718Z,15.51
2023-09-08T05:55:10.710Z,15.53
2023-09-08T05:56:10.776Z,15.60
2023-09-08T05:57:10.689Z,15.56
2023-09-08T05:58:10.674Z,15.59
2023-09-08T05:59:10.668Z,15.60
2023-09-08T06:00:10.782Z,15.59
2023-09-08T06:01:10.678Z,15.71
2023-09-08T06:02:10.670Z,15.77
2023-09-08T06:03:10.771Z,15.96
2023-09-08T06:04:10.693Z,16.08
2023-09-08T06:05:10.604Z,16.24
2023-09-08T06:06:10.596Z,16.22
2023-09-08T06:07:10.602Z,16.33
2023-09-08T06:08:10.569Z,16.39
2023-09-08T06:09:10.564Z,16.39
2023-09-08T06:10:10.555Z,16.58
2023-09-08T06:11:10.557Z,16.64
2023-09-08T06:12:10.550Z,16.68
2023-09-08T06:13:10.549Z,16.59
2023-09-08T06:14:10.510Z,16.61
2023-09-08T06:15:10.496Z,16.66
2023-09-08T06:16:10.513Z,16.71
2023-09-08T06:17:10.510Z,16.77
2023-09-08T06:18:10.556Z,16.79
2023-09-08T06:19:10.455Z,16.81
2023-09-08T06:20:10.459Z,16.86
2023-09-08T06:21:10.497Z,16.96
2023-09-08T06:22:10.423Z,17.02
2023-09-08T06:23:10.418Z,17.14
2023-09-08T06:24:10.458Z,17.14
2023-09-08T06:25:10.389Z,17.09
2023-09-08T06:26:10.381Z,17.15
2023-09-08T06:27:10.382Z,17.20
2023-09-08T06:28:10.370Z,17.25
2023-09-08T06:29:10.363Z,17.42
2023-09-08T06:30:10.336Z,17.42
2023-09-08T06:31:10.383Z,17.39
2023-09-08T06:32:10.316Z,17.40
2023-09-08T06:33:10.600Z,17.51
2023-09-08T06:34:10.562Z,17.46
2023-09-08T06:35:10.296Z,17.49
2023-09-08T06:36:10.299Z,17.64
2023-09-08T06:37:10.274Z,17.67
2023-09-08T06:38:10.262Z,17.72
2023-09-08T06:39:10.269Z,17.82
2023-09-08T06:40:10.281Z,17.90
2023-09-08T06:41:10.221Z,17.86
2023-09-08T06:42:10.236Z,17.80
2023-09-08T06:43:10.208Z,17.90
2023-09-08T06:44:10.188Z,17.90
2023-09-08T06:45:10.178Z,17.95
2023-09-08T06:46:10.200Z,18.03
2023-09-08T06:47:10.181Z,18.13
2023-09-08T06:48:10.259Z,18.16
2023-09-08T06:49:10.154Z,18.27
2023-09-08T06:50:10.135Z,18.36
2023-09-08T06:51:10.192Z,18.36
2023-09-08T06:52:10.102Z,18.53
2023-09-08T06:53:10.094Z,18.56
2023-09-08T06:54:10.103Z,18.64
2023-09-08T06:55:10.074Z,18.75
2023-09-08T06:56:10.061Z,18.76
2023-09-08T06:57:10.056Z,18.83
2023-09-08T06:58:10.037Z,18.86
2023-09-08T06:59:10.049Z,18.91
2023-09-08T07:00:10.029Z,18.99
2023-09-08T07:01:10.068Z,19.08
2023-09-08T07:02:10.059Z,19.08
2023-09-08T07:03:10.148Z,19.24
2023-09-08T07:04:10.054Z,19.38
2023-09-08T07:05:10.116Z,19.45
2023-09-08T07:06:09.963Z,19.49
2023-09-08T07:07:09.973Z,19.49
2023-09-08T07:08:09.988Z,19.51
2023-09-08T07:09:09.936Z,19.54
2023-09-08T07:10:09.919Z,19.75
2023-09-08T07:11:09.983Z,19.78
2023-09-08T07:12:09.893Z,19.82
2023-09-08T07:13:09.902Z,19.89
2023-09-08T07:14:09.876Z,19.94
2023-09-08T07:15:09.866Z,20.19
2023-09-08T07:16:09.928Z,20.31
2023-09-08T07:17:09.990Z,20.35
2023-09-08T07:18:09.859Z,20.55
2023-09-08T07:19:09.857Z,20.77
2023-09-08T07:20:09.817Z,20.77
2023-09-08T07:21:09.853Z,20.92
2023-09-08T07:22:09.795Z,21.12
2023-09-08T07:23:09.875Z,21.19
2023-09-08T07:24:09.769Z,21.31
2023-09-08T07:25:09.766Z,21.36
2023-09-08T07:26:09.744Z,21.46
2023-09-08T07:27:09.737Z,21.81
2023-09-08T07:28:09.724Z,22.08
2023-09-08T07:29:09.722Z,22.30
2023-09-08T07:30:09.856Z,22.61
2023-09-08T07:31:09.807Z,22.96
2023-09-08T07:32:09.715Z,23.37
2023-09-08T07:34:09.664Z,23.89
2023-09-08T07:35:09.653Z,24.31
2023-09-08T07:36:09.772Z,24.39
2023-09-08T07:37:09.669Z,24.51
2023-09-08T07:38:09.626Z,24.74
2023-09-08T07:39:09.609Z,24.91
2023-09-08T07:40:09.607Z,24.86
2023-09-08T07:41:09.590Z,24.85
2023-09-08T07:42:09.575Z,24.78
2023-09-08T07:43:09.633Z,24.85
2023-09-08T07:44:09.556Z,24.86
2023-09-08T07:45:09.550Z,24.97
2023-09-08T07:46:09.588Z,25.28
2023-09-08T07:47:09.527Z,25.08
2023-09-08T07:48:09.617Z,25.23
2023-09-08T07:49:09.505Z,25.30
2023-09-08T07:50:09.497Z,25.46
2023-09-08T07:51:09.486Z,25.54
2023-09-08T07:52:09.491Z,25.66
2023-09-08T07:53:09.489Z,25.54
2023-09-08T07:54:09.453Z,25.63
2023-09-08T07:55:09.452Z,25.51
2023-09-08T07:56:09.452Z,25.59
2023-09-08T07:57:09.422Z,25.48
2023-09-08T07:58:09.418Z,25.59
2023-09-08T07:59:09.429Z,25.71
2023-09-08T08:00:09.407Z,25.74
2023-09-08T08:01:09.445Z,25.91
2023-09-08T08:02:09.390Z,25.90
2023-09-08T08:03:09.385Z,26.52
2023-09-08T08:04:09.556Z,27.09
2023-09-08T08:05:10.297Z,27.70
2023-09-08T08:06:09.336Z,27.97
2023-09-08T08:07:09.320Z,28.14
2023-09-08T08:08:09.337Z,28.17
2023-09-08T08:09:09.372Z,27.97
2023-09-08T08:10:09.287Z,28.24
2023-09-08T08:11:09.280Z,28.35
2023-09-08T08:12:09.269Z,28.55
2023-09-08T08:13:09.259Z,28.69
2023-09-08T08:14:09.246Z,28.70
2023-09-08T08:15:09.262Z,28.82
2023-09-08T08:16:09.256Z,28.79
2023-09-08T08:17:09.216Z,28.98
2023-09-08T08:18:09.383Z,28.99
2023-09-08T08:19:09.197Z,29.06
2023-09-08T08:20:09.210Z,29.35
2023-09-08T08:21:09.202Z,29.41
2023-09-08T08:22:09.171Z,28.88
2023-09-08T08:23:09.173Z,28.62
2023-09-08T08:24:09.185Z,28.19
2023-09-08T08:25:11.738Z,27.92
2023-09-08T08:26:09.141Z,27.49
2023-09-08T08:27:09.166Z,27.68
2023-09-08T08:28:09.175Z,28.14
2023-09-08T08:29:09.107Z,28.05
2023-09-08T08:30:09.099Z,28.19
2023-09-08T08:31:09.123Z,28.60
2023-09-08T08:32:09.064Z,28.43
2023-09-08T08:33:09.130Z,28.30
2023-09-08T08:34:09.045Z,28.76
2023-09-08T08:35:09.056Z,29.24
2023-09-08T08:36:09.037Z,29.59
2023-09-08T08:37:09.016Z,29.54
2023-09-08T08:38:09.002Z,29.44
2023-09-08T08:39:08.996Z,29.65
2023-09-08T08:40:08.983Z,29.99
2023-09-08T08:41:09.003Z,29.73
2023-09-08T08:42:08.962Z,29.36
2023-09-08T08:43:08.966Z,29.25
2023-09-08T08:44:08.945Z,29.17
2023-09-08T08:45:08.939Z,29.09
2023-09-08T08:46:08.979Z,29.16
2023-09-08T08:47:08.921Z,29.56
2023-09-08T08:48:09.010Z,29.92
2023-09-08T08:49:08.904Z,30.11
2023-09-08T08:50:08.888Z,30.16
2023-09-08T08:51:08.910Z,30.07
2023-09-08T08:52:08.865Z,29.95
2023-09-08T08:53:08.854Z,29.82
2023-09-08T08:54:08.847Z,29.46
2023-09-08T08:55:08.834Z,29.26
2023-09-08T08:56:08.832Z,29.16
2023-09-08T08:57:08.892Z,28.80
2023-09-08T08:58:08.808Z,28.54
2023-09-08T08:59:08.813Z,28.51
2023-09-08T09:00:08.869Z,28.80
2023-09-08T09:01:08.848Z,29.34
2023-09-08T09:02:08.776Z,29.63
2023-09-08T09:03:15.475Z,29.81
2023-09-08T09:04:09.802Z,29.95
2023-09-08T09:05:08.738Z,30.45
2023-09-08T09:06:08.732Z,30.47
2023-09-08T09:07:08.731Z,30.52
2023-09-08T09:08:08.727Z,30.89
2023-09-08T09:09:08.703Z,30.96
2023-09-08T09:10:08.697Z,31.23
2023-09-08T09:11:08.715Z,30.95
2023-09-08T09:12:08.673Z,30.93
2023-09-08T09:13:08.692Z,31.15
2023-09-08T09:14:08.655Z,31.56
2023-09-08T09:15:08.639Z,31.67
2023-09-08T09:16:08.682Z,31.09
2023-09-08T09:17:08.619Z,30.84
2023-09-08T09:18:08.653Z,31.03
2023-09-08T09:19:08.599Z,31.27
2023-09-08T09:20:08.608Z,31.56
2023-09-08T09:21:08.581Z,31.41
2023-09-08T09:22:08.571Z,30.59
2023-09-08T09:23:08.561Z,30.26
2023-09-08T09:24:08.667Z,30.60
2023-09-08T09:25:08.679Z,30.47
2023-09-08T09:26:08.558Z,30.50
2023-09-08T09:27:08.520Z,30.40
2023-09-08T09:28:08.511Z,30.53
2023-09-08T09:29:08.679Z,30.52
2023-09-08T09:30:08.490Z,30.59
2023-09-08T09:31:08.482Z,30.69
2023-09-08T09:32:08.481Z,30.69
2023-09-08T09:33:08.477Z,30.44
2023-09-08T09:34:08.496Z,30.07
2023-09-08T09:35:08.455Z,29.68
2023-09-08T09:36:08.495Z,29.57
2023-09-08T09:37:08.430Z,29.68
2023-09-08T09:38:08.419Z,29.84
2023-09-08T09:39:08.411Z,30.21
2023-09-08T09:40:08.458Z,30.43
2023-09-08T09:41:08.382Z,30.45
2023-09-08T09:42:08.370Z,30.36
2023-09-08T09:43:08.454Z,30.11
2023-09-08T09:44:08.352Z,30.04
2023-09-08T09:45:08.457Z,30.30
2023-09-08T09:46:08.398Z,30.34
2023-09-08T09:47:08.322Z,30.60
2023-09-08T09:48:08.332Z,30.29
2023-09-08T09:49:08.301Z,30.00
2023-09-08T09:50:08.294Z,29.89
2023-09-08T09:51:08.275Z,30.00
2023-09-08T09:52:08.268Z,29.74
2023-09-08T09:53:08.258Z,29.88
2023-09-08T09:54:08.248Z,29.43
2023-09-08T09:55:08.239Z,29.28
2023-09-08T09:56:08.225Z,29.29
2023-09-08T09:57:08.213Z,29.34
2023-09-08T09:58:08.204Z,29.88
2023-09-08T09:59:08.192Z,30.50
2023-09-08T10:00:08.238Z,30.75
2023-09-08T10:01:08.296Z,30.44
2023-09-08T10:02:08.194Z,30.36
2023-09-08T10:03:08.344Z,30.58
2023-09-08T10:04:08.198Z,30.99
2023-09-08T10:05:08.130Z,30.65
2023-09-08T10:06:08.198Z,30.50
2023-09-08T10:07:08.114Z,30.28
2023-09-08T10:08:08.120Z,30.28
2023-09-08T10:09:08.087Z,30.19
2023-09-08T10:10:08.079Z,30.16
2023-09-08T10:11:08.067Z,30.03
2023-09-08T10:12:08.099Z,29.97
2023-09-08T10:13:08.126Z,30.00
2023-09-08T10:14:08.038Z,30.04
2023-09-08T10:15:08.076Z,30.18
2023-09-08T10:16:08.020Z,30.21
2023-09-08T10:17:08.028Z,30.08
2023-09-08T10:18:08.067Z,30.18
2023-09-08T10:19:08.027Z,30.63
2023-09-08T10:20:07.975Z,30.37
2023-09-08T10:21:07.986Z,30.40
2023-09-08T10:22:07.974Z,30.04
2023-09-08T10:23:07.944Z,30.00
2023-09-08T10:24:07.965Z,30.41
2023-09-08T10:25:07.947Z,30.56
2023-09-08T10:26:07.930Z,30.58
2023-09-08T10:27:07.932Z,31.08
2023-09-08T10:28:07.899Z,31.54
2023-09-08T10:29:07.888Z,31.59
2023-09-08T10:30:08.014Z,31.68
2023-09-08T10:31:07.959Z,31.67
2023-09-08T10:32:07.880Z,31.56
2023-09-08T10:33:07.917Z,31.02
2023-09-08T10:34:07.837Z,30.77
2023-09-08T10:35:07.831Z,30.71
2023-09-08T10:36:07.822Z,30.72
2023-09-08T10:37:07.859Z,30.99
2023-09-08T10:38:07.801Z,31.09
2023-09-08T10:39:07.789Z,31.27
2023-09-08T10:40:07.840Z,31.16
2023-09-08T10:41:07.765Z,31.06
2023-09-08T10:42:07.765Z,31.16
2023-09-08T10:43:07.748Z,31.31
2023-09-08T10:44:07.759Z,31.16
2023-09-08T10:45:07.733Z,30.50
2023-09-08T10:46:07.775Z,30.55
2023-09-08T10:47:07.708Z,30.93
2023-09-08T10:48:07.739Z,30.97
2023-09-08T10:49:07.785Z,30.92
2023-09-08T10:50:07.697Z,30.93
2023-09-08T10:51:07.668Z,31.19
2023-09-08T10:52:07.694Z,31.27
2023-09-08T10:53:07.649Z,31.23
2023-09-08T10:54:07.647Z,30.75
2023-09-08T10:55:07.638Z,30.52
2023-09-08T10:56:18.614Z,30.45
2023-09-08T10:57:08.643Z,30.44
2023-09-08T10:58:07.611Z,30.74
2023-09-08T10:59:07.598Z,30.82
2023-09-08T11:00:07.587Z,31.18
2023-09-08T11:01:07.588Z,31.40
2023-09-08T11:02:07.602Z,31.56
2023-09-08T11:03:07.642Z,31.47
2023-09-08T11:04:07.697Z,32.09
2023-09-08T11:05:07.563Z,31.87
2023-09-08T11:06:07.554Z,31.79
2023-09-08T11:07:07.518Z,31.96
2023-09-08T11:08:07.508Z,32.48
2023-09-08T11:09:07.511Z,32.28
2023-09-08T11:10:07.488Z,31.91
2023-09-08T11:11:07.485Z,31.83
2023-09-08T11:12:07.471Z,31.30
2023-09-08T11:13:07.465Z,31.53
2023-09-08T11:14:07.468Z,31.71
2023-09-08T11:15:07.440Z,31.71
2023-09-08T11:16:07.476Z,31.86
2023-09-08T11:17:07.419Z,31.78
2023-09-08T11:18:07.465Z,31.86
2023-09-08T11:19:07.399Z,31.57
2023-09-08T11:20:07.404Z,31.50
2023-09-08T11:21:07.500Z,30.87
2023-09-08T11:22:07.370Z,30.81
2023-09-08T11:23:07.361Z,30.96
2023-09-08T11:24:07.366Z,31.16
2023-09-08T11:25:07.343Z,31.25
2023-09-08T11:26:07.391Z,31.04
2023-09-08T11:27:07.321Z,31.25
2023-09-08T11:28:07.333Z,31.65
2023-09-08T11:29:07.304Z,32.13
2023-09-08T11:30:07.296Z,31.86
2023-09-08T11:31:07.350Z,31.49
2023-09-08T11:32:07.281Z,31.45
2023-09-08T11:33:07.271Z,31.46
2023-09-08T11:34:07.340Z,31.56
2023-09-08T11:35:07.246Z,31.53
2023-09-08T11:36:07.240Z,31.40
2023-09-08T11:37:07.295Z,31.00
2023-09-08T11:38:07.212Z,31.09
2023-09-08T11:39:07.199Z,31.38
2023-09-08T11:40:07.209Z,31.72
2023-09-08T11:41:07.206Z,31.78
2023-09-08T11:42:07.188Z,31.93
2023-09-08T11:43:07.253Z,32.24
2023-09-08T11:44:07.207Z,32.53
2023-09-08T11:45:07.139Z,32.39
2023-09-08T11:46:07.170Z,31.93
2023-09-08T11:47:07.209Z,31.79
2023-09-08T11:48:07.168Z,31.67
2023-09-08T11:49:07.144Z,31.68
2023-09-08T11:50:07.093Z,31.94
2023-09-08T11:51:07.081Z,31.84
2023-09-08T11:52:07.093Z,31.86
2023-09-08T11:53:07.085Z,31.78
2023-09-08T11:54:07.049Z,32.13
2023-09-08T11:55:07.893Z,32.49
2023-09-08T11:56:07.035Z,32.27
2023-09-08T11:57:07.019Z,32.38
2023-09-08T11:58:07.041Z,32.39
2023-09-08T11:59:07.050Z,32.26
2023-09-08T12:00:07.004Z,32.08
2023-09-08T12:01:07.037Z,31.97
2023-09-08T12:02:06.967Z,31.75
2023-09-08T12:03:06.999Z,31.59
2023-09-08T12:04:07.040Z,31.65
2023-09-08T12:05:06.943Z,31.87
2023-09-08T12:06:06.933Z,31.68
2023-09-08T12:07:06.952Z,31.75
2023-09-08T12:08:06.908Z,31.50
2023-09-08T12:09:06.966Z,31.68
2023-09-08T12:10:06.899Z,31.75
2023-09-08T12:11:06.875Z,31.83
2023-09-08T12:12:06.867Z,31.72
2023-09-08T12:13:06.903Z,31.89
2023-09-08T12:14:06.844Z,32.04
2023-09-08T12:15:06.834Z,31.82
2023-09-08T12:16:06.903Z,31.84
2023-09-08T12:17:06.843Z,31.87
2023-09-08T12:18:06.858Z,31.93
2023-09-08T12:19:06.817Z,31.96
2023-09-08T12:20:06.794Z,32.15
2023-09-08T12:21:06.782Z,32.18
2023-09-08T12:22:06.795Z,32.30
2023-09-08T12:23:06.761Z,32.65
2023-09-08T12:24:06.742Z,32.71
2023-09-08T12:25:06.755Z,32.73
2023-09-08T12:26:06.724Z,32.69
2023-09-08T12:27:06.779Z,32.62
2023-09-08T12:28:06.728Z,32.06
2023-09-08T12:29:06.689Z,32.15
2023-09-08T12:30:06.683Z,32.16
2023-09-08T12:31:06.745Z,32.06
2023-09-08T12:32:06.697Z,32.12
2023-09-08T12:33:06.726Z,32.08
2023-09-08T12:34:06.715Z,31.89
2023-09-08T12:35:06.638Z,31.97
2023-09-08T12:36:06.624Z,32.09
2023-09-08T12:37:06.657Z,32.15
2023-09-08T12:38:06.640Z,32.33
2023-09-08T12:39:06.594Z,32.35
2023-09-08T12:40:06.629Z,32.43
2023-09-08T12:41:06.597Z,32.28
2023-09-08T12:42:06.565Z,32.02
2023-09-08T12:43:14.734Z,31.84
2023-09-08T12:44:07.594Z,31.97
2023-09-08T12:45:06.536Z,31.90
2023-09-08T12:46:06.602Z,32.09
2023-09-08T12:47:06.558Z,32.34
2023-09-08T12:48:06.509Z,32.38
2023-09-08T12:49:07.911Z,32.38
2023-09-08T12:50:06.494Z,31.98
2023-09-08T12:51:06.477Z,31.49
2023-09-08T12:52:06.465Z,31.47
2023-09-08T12:53:06.458Z,31.57
2023-09-08T12:54:06.449Z,31.87
2023-09-08T12:55:06.447Z,32.28
2023-09-08T12:56:06.439Z,32.48
2023-09-08T12:57:07.214Z,32.28
2023-09-08T12:58:06.413Z,32.28
2023-09-08T12:59:06.403Z,32.08
2023-09-08T13:00:06.427Z,32.05
2023-09-08T13:01:06.545Z,32.20
2023-09-08T13:02:06.375Z,32.15